Time;durP1;ratioP1;P1;durP2;ratioP2;P2;SDS_P1;SDS_P2;PMS_P1;PMS_P2;Temp;Humidity;BMP_temperature;BMP_pressure;BME280_temperature;BME280_humidity;BME280_pressure;Samples;Min_cycle;Max_cycle;Signal;HPM_P1;HPM_P2
2021/07/09 00:01:39;;;;;;;23.00;9.87;;;;;;;16.52;100.00;101389.75;5057678;28;20299;-72
2021/07/09 00:04:05;;;;;;;24.80;9.40;;;;;;;16.46;100.00;101395.09;5058053;28;20293;-72
2021/07/09 00:06:31;;;;;;;20.03;8.63;;;;;;;16.38;100.00;101393.41;5060571;28;20461;-72
2021/07/09 00:08:57;;;;;;;19.30;8.70;;;;;;;16.35;100.00;101382.00;5054886;28;20044;-72
2021/07/09 00:11:22;;;;;;;19.70;8.63;;;;;;;16.30;100.00;101383.81;5060027;28;20036;-72
2021/07/09 00:13:53;;;;;;;20.43;9.50;;;;;;;16.30;100.00;101382.06;5059843;28;20670;-72
2021/07/09 00:16:19;;;;;;;19.20;9.70;;;;;;;16.26;100.00;101376.84;5059484;28;20173;-71
2021/07/09 00:18:46;;;;;;;17.83;8.97;;;;;;;16.24;100.00;101376.88;5059737;28;20044;-72
2021/07/09 00:21:11;;;;;;;18.50;9.27;;;;;;;16.23;100.00;101376.84;5060449;28;20377;-72
2021/07/09 00:23:37;;;;;;;19.07;9.43;;;;;;;16.22;100.00;101373.34;5059778;28;20032;-71
2021/07/09 00:26:03;;;;;;;18.90;9.30;;;;;;;16.23;100.00;101374.22;5060034;28;20041;-72
2021/07/09 00:28:29;;;;;;;17.57;8.77;;;;;;;16.24;100.00;101363.66;5059455;28;20040;-72
2021/07/09 00:30:54;;;;;;;20.27;8.73;;;;;;;16.28;100.00;101370.66;5059975;28;20485;-72
2021/07/09 00:33:20;;;;;;;17.70;8.17;;;;;;;16.29;100.00;101366.25;5059502;28;20183;-72
2021/07/09 00:35:46;;;;;;;15.60;8.77;;;;;;;16.30;100.00;101358.31;5059368;28;20031;-72
2021/07/09 00:38:11;;;;;;;21.30;8.43;;;;;;;16.34;100.00;101353.84;5059436;28;20040;-71
2021/07/09 00:40:37;;;;;;;16.60;7.70;;;;;;;16.37;100.00;101344.16;5059106;28;20749;-72
2021/07/09 00:43:03;;;;;;;16.60;8.43;;;;;;;16.39;100.00;101345.00;5059415;28;20269;-72
2021/07/09 00:45:29;;;;;;;13.40;7.47;;;;;;;16.44;100.00;101349.34;5059251;28;20056;-71
2021/07/09 00:47:55;;;;;;;15.63;6.97;;;;;;;16.45;100.00;101356.38;5058096;28;20024;-72
2021/07/09 00:50:21;;;;;;;15.40;7.43;;;;;;;16.51;100.00;101361.59;5059598;28;20060;-72
2021/07/09 00:52:46;;;;;;;16.70;7.00;;;;;;;16.54;100.00;101354.50;5060995;28;20561;-72
2021/07/09 00:55:14;;;;;;;13.03;6.73;;;;;;;16.55;100.00;101352.72;5059872;28;20036;-72
2021/07/09 00:57:42;;;;;;;14.87;6.67;;;;;;;16.59;100.00;101354.44;5058932;28;20031;-72
2021/07/09 01:00:10;;;;;;;14.47;6.77;;;;;;;16.61;100.00;101366.75;5058435;28;20039;-71
2021/07/09 01:02:36;;;;;;;13.43;6.50;;;;;;;16.65;100.00;101359.66;5056490;28;20129;-72
2021/07/09 01:05:04;;;;;;;16.33;6.70;;;;;;;16.65;100.00;101349.94;5059319;28;20469;-72
2021/07/09 01:07:29;;;;;;;13.90;7.00;;;;;;;16.66;100.00;101350.81;5059266;28;20244;-72
2021/07/09 01:09:55;;;;;;;15.30;6.53;;;;;;;16.64;100.00;101352.63;5058452;28;20039;-72
2021/07/09 01:12:20;;;;;;;18.23;7.10;;;;;;;16.65;100.00;101357.00;5059370;28;20186;-72
2021/07/09 01:14:47;;;;;;;16.17;6.67;;;;;;;16.68;100.00;101354.34;5059584;28;20469;-72
2021/07/09 01:17:13;;;;;;;13.97;6.83;;;;;;;16.66;100.00;101353.47;5059287;28;20534;-72
2021/07/09 01:19:39;;;;;;;14.43;6.13;;;;;;;16.66;100.00;101353.47;5059314;28;20056;-72
2021/07/09 01:22:06;;;;;;;13.10;5.93;;;;;;;16.68;100.00;101359.63;5059326;28;20502;-71
2021/07/09 01:24:36;;;;;;;10.67;5.67;;;;;;;16.67;100.00;101352.56;5059163;28;20033;-72
2021/07/09 01:27:02;;;;;;;13.00;5.27;;;;;;;16.65;100.00;101359.66;5060527;28;20194;-72
2021/07/09 01:29:28;;;;;;;10.47;5.60;;;;;;;16.70;100.00;101360.47;5065543;28;20043;-72
2021/07/09 01:31:54;;;;;;;12.93;6.07;;;;;;;16.76;100.00;101362.19;5065674;28;20028;-72
2021/07/09 01:34:20;;;;;;;12.47;5.37;;;;;;;16.76;100.00;101360.41;5065437;28;20028;-72
2021/07/09 01:36:45;;;;;;;11.50;5.57;;;;;;;16.73;100.00;101362.22;5059950;28;20176;-72
2021/07/09 01:39:11;;;;;;;13.27;6.10;;;;;;;16.73;100.00;101363.09;5065496;28;20111;-72
2021/07/09 01:41:36;;;;;;;11.33;6.30;;;;;;;16.74;100.00;101364.84;5064472;28;20233;-72
2021/07/09 01:44:03;;;;;;;11.43;5.60;;;;;;;16.71;100.00;101364.88;5065980;28;20481;-72
2021/07/09 01:46:29;;;;;;;14.10;6.03;;;;;;;16.70;100.00;101373.69;5065060;28;20029;-72
2021/07/09 01:48:54;;;;;;;13.33;6.30;;;;;;;16.69;100.00;101371.94;5065809;28;20039;-72
2021/07/09 01:51:20;;;;;;;12.80;5.93;;;;;;;16.69;100.00;101379.88;5065322;28;20028;-72
2021/07/09 01:53:45;;;;;;;12.53;6.00;;;;;;;16.70;100.00;101378.97;5065813;28;20058;-71
2021/07/09 01:56:11;;;;;;;11.60;5.90;;;;;;;16.67;100.00;101381.63;5065558;28;20527;-71
2021/07/09 01:58:37;;;;;;;14.63;6.50;;;;;;;16.66;100.00;101382.53;5063893;28;20033;-71
2021/07/09 02:01:03;;;;;;;15.47;6.50;;;;;;;16.64;100.00;101386.94;5063315;28;20469;-72
2021/07/09 02:03:28;;;;;;;15.20;6.33;;;;;;;16.59;100.00;101392.28;5064742;28;20055;-72
2021/07/09 02:05:54;;;;;;;12.60;6.97;;;;;;;16.60;100.00;101393.19;5065640;28;20465;-72
2021/07/09 02:08:19;;;;;;;12.27;6.57;;;;;;;16.60;100.00;101395.81;5064606;28;20253;-72
2021/07/09 02:10:45;;;;;;;14.23;6.73;;;;;;;16.55;100.00;101394.97;5065504;28;20093;-71
2021/07/09 02:13:11;;;;;;;13.17;6.20;;;;;;;16.50;100.00;101388.91;5065650;28;20421;-71
2021/07/09 02:15:39;;;;;;;14.80;7.30;;;;;;;16.50;100.00;101386.25;5065359;28;20261;-71
2021/07/09 02:18:06;;;;;;;12.27;6.63;;;;;;;16.48;100.00;101399.47;5065855;28;20140;-71
2021/07/09 02:20:33;;;;;;;17.33;6.83;;;;;;;16.46;100.00;101390.69;5065241;28;20032;-71
2021/07/09 02:23:00;;;;;;;15.37;7.00;;;;;;;16.46;100.00;101400.38;5064808;28;20032;-71
2021/07/09 02:25:25;;;;;;;13.33;6.70;;;;;;;16.44;100.00;101388.94;5065256;28;20020;-71
2021/07/09 02:27:53;;;;;;;12.57;6.87;;;;;;;16.40;100.00;101391.63;5064279;28;20092;-71
2021/07/09 02:30:19;;;;;;;13.07;6.60;;;;;;;16.41;100.00;101398.66;5062229;28;20209;-71
2021/07/09 02:32:47;;;;;;;13.10;7.00;;;;;;;16.40;100.00;101401.31;5062841;28;20123;-71
2021/07/09 02:35:15;;;;;;;17.53;7.63;;;;;;;16.39;100.00;101395.16;5065149;28;20036;-71
2021/07/09 02:37:42;;;;;;;16.37;7.27;;;;;;;16.41;100.00;101401.31;5065634;28;20029;-72
2021/07/09 02:40:12;;;;;;;17.20;7.60;;;;;;;16.38;100.00;101393.41;5062597;28;20029;-72
2021/07/09 02:42:38;;;;;;;22.57;8.03;;;;;;;16.35;100.00;101393.47;5061270;28;20728;-72
2021/07/09 02:45:04;;;;;;;13.90;7.45;;;;;;;16.36;100.00;101395.22;5062099;28;20465;-72
2021/07/09 02:47:30;;;;;;;21.57;7.43;;;;;;;16.32;100.00;101387.31;5064682;28;20031;-72
2021/07/09 02:49:55;;;;;;;16.80;7.53;;;;;;;16.28;100.00;101383.84;5062349;28;20028;-73
2021/07/09 02:52:21;;;;;;;17.87;8.10;;;;;;;16.30;100.00;101384.69;5061403;28;20432;-73
2021/07/09 02:54:46;;;;;;;17.13;7.60;;;;;;;16.31;100.00;101386.44;5062072;28;20047;-72
2021/07/09 02:57:12;;;;;;;13.93;6.87;;;;;;;16.30;100.00;101384.69;5063263;28;20047;-73
2021/07/09 02:59:37;;;;;;;15.47;7.47;;;;;;;16.33;100.00;101382.03;5061832;28;20279;-73
2021/07/09 03:02:03;;;;;;;20.63;7.13;;;;;;;16.33;100.00;101376.75;5051096;28;20083;-73
2021/07/09 03:04:29;;;;;;;16.40;7.17;;;;;;;16.35;100.00;101382.00;5061117;28;20038;-73
2021/07/09 03:06:54;;;;;;;15.23;6.53;;;;;;;16.32;100.00;101377.63;5062049;28;20062;-72
2021/07/09 03:09:20;;;;;;;15.00;7.47;;;;;;;16.32;100.00;101372.34;5061686;28;20088;-73
2021/07/09 03:11:45;;;;;;;17.30;7.33;;;;;;;16.32;100.00;101371.47;5070265;28;20528;-72
2021/07/09 03:14:11;;;;;;;17.20;7.23;;;;;;;16.32;100.00;101364.44;5062820;28;20020;-72
2021/07/09 03:16:37;;;;;;;16.43;7.60;;;;;;;16.32;100.00;101369.72;5061759;28;20114;-72
2021/07/09 03:19:06;;;;;;;15.50;6.70;;;;;;;16.29;100.00;101372.41;5061524;28;20259;-73
2021/07/09 03:21:34;;;;;;;15.87;7.37;;;;;;;16.30;100.00;101368.88;5061312;28;20056;-73
2021/07/09 03:23:59;;;;;;;14.93;6.73;;;;;;;16.31;100.00;101362.69;5061116;28;20032;-72
2021/07/09 03:26:25;;;;;;;12.93;6.17;;;;;;;16.30;100.00;101366.22;5061772;28;20028;-72
2021/07/09 03:28:50;;;;;;;15.17;6.83;;;;;;;16.33;100.00;101363.53;5060851;28;20400;-73
2021/07/09 03:31:16;;;;;;;15.77;6.83;;;;;;;16.33;100.00;101355.63;5061461;28;20124;-73
2021/07/09 03:33:41;;;;;;;12.77;6.60;;;;;;;16.33;100.00;101360.91;5060739;28;20515;-72
2021/07/09 03:36:07;;;;;;;16.30;7.00;;;;;;;16.37;100.00;101359.13;5060761;28;20032;-72
2021/07/09 03:38:32;;;;;;;18.03;7.30;;;;;;;16.39;100.00;101366.13;5060801;28;20253;-72
2021/07/09 03:40:58;;;;;;;13.20;6.40;;;;;;;16.33;100.00;101363.53;5060500;28;20078;-73
2021/07/09 03:43:23;;;;;;;15.50;7.17;;;;;;;16.39;100.00;101358.22;5060303;28;20381;-72
2021/07/09 03:45:49;;;;;;;16.10;6.60;;;;;;;16.45;100.00;101364.28;5060650;28;20036;-72
2021/07/09 03:48:14;;;;;;;17.03;7.30;;;;;;;16.46;100.00;101363.41;5060984;28;20547;-72
2021/07/09 03:50:40;;;;;;;16.07;7.10;;;;;;;16.52;100.00;101371.25;5052937;28;20067;-73
2021/07/09 03:53:06;;;;;;;15.23;7.10;;;;;;;16.58;100.00;101363.25;5060616;28;20075;-72
2021/07/09 03:55:31;;;;;;;13.97;7.10;;;;;;;16.61;100.00;101353.53;5060471;28;20184;-73
2021/07/09 03:57:57;;;;;;;14.93;7.07;;;;;;;16.67;100.00;101352.56;5059715;28;20166;-72
2021/07/09 04:00:23;;;;;;;14.60;6.57;;;;;;;16.68;100.00;101363.16;5060053;28;20243;-72
2021/07/09 04:02:48;;;;;;;14.77;6.70;;;;;;;16.72;100.00;101365.75;5056736;28;20128;-72
2021/07/09 04:05:14;;;;;;;14.93;6.50;;;;;;;16.71;100.00;101364.88;5060790;28;20071;-73
2021/07/09 04:07:40;;;;;;;15.73;6.73;;;;;;;16.73;100.00;101363.09;5060225;28;20016;-73
2021/07/09 04:10:07;;;;;;;15.43;7.03;;;;;;;16.75;100.00;101365.72;5060204;28;20036;-72
2021/07/09 04:12:32;;;;;;;16.40;6.80;;;;;;;16.73;100.00;101365.75;5059937;28;20085;-73
2021/07/09 04:14:58;;;;;;;20.63;6.73;;;;;;;-145.18;100.00;60484.78;5059597;28;20028;-73
2021/07/09 04:17:23;;;;;;;15.40;6.93;;;;;;;-145.18;100.00;60484.78;5060094;28;20170;-73
2021/07/09 04:19:51;;;;;;;15.00;6.73;;;;;;;-145.18;100.00;60484.78;5060012;28;20035;-73
2021/07/09 04:22:17;;;;;;;11.63;5.73;;;;;;;-145.18;100.00;60484.78;5059811;28;20020;-73
2021/07/09 04:24:42;;;;;;;15.57;6.70;;;;;;;-145.18;100.00;60484.78;5059023;28;20036;-73
2021/07/09 04:27:08;;;;;;;12.43;6.23;;;;;;;-145.18;100.00;60484.78;5059183;28;20032;-72
2021/07/09 04:29:34;;;;;;;14.97;6.83;;;;;;;-145.18;100.00;60484.78;5059852;28;20496;-72
2021/07/09 04:31:59;;;;;;;15.87;6.97;;;;;;;-145.18;100.00;60484.78;5058942;28;20160;-73
2021/07/09 04:34:25;;;;;;;13.30;6.37;;;;;;;-145.18;100.00;60484.78;5059003;28;20020;-73
2021/07/09 04:36:50;;;;;;;14.57;6.30;;;;;;;-145.18;100.00;60484.78;5059347;28;20028;-72
2021/07/09 04:39:16;;;;;;;12.67;6.60;;;;;;;-145.18;100.00;60484.78;5059916;28;20031;-73
2021/07/09 04:41:41;;;;;;;15.23;6.40;;;;;;;-145.18;100.00;60484.78;5058249;28;20660;-73
2021/07/09 04:44:07;;;;;;;15.10;5.83;;;;;;;-145.18;100.00;60484.78;5059701;28;20036;-73
2021/07/09 04:46:32;;;;;;;11.60;6.10;;;;;;;-145.18;100.00;60484.78;5058575;28;20028;-73
2021/07/09 04:48:58;;;;;;;13.80;6.20;;;;;;;-145.18;100.00;60484.78;5059829;28;20579;-72
2021/07/09 04:51:23;;;;;;;14.27;6.53;;;;;;;-145.18;100.00;60484.78;5059573;28;20028;-73
2021/07/09 04:53:49;;;;;;;14.67;6.53;;;;;;;-145.18;100.00;60484.78;5059803;28;20090;-73
2021/07/09 04:56:14;;;;;;;14.47;6.17;;;;;;;-145.18;100.00;60484.78;5059328;28;20077;-73
2021/07/09 04:58:40;;;;;;;11.80;5.60;;;;;;;-145.18;100.00;60484.78;5059254;28;20047;-73
2021/07/09 05:01:05;;;;;;;13.90;5.70;;;;;;;-145.18;100.00;60484.78;5059510;28;20028;-73
2021/07/09 05:03:31;;;;;;;13.00;6.00;;;;;;;-145.18;100.00;60484.78;5058845;28;20488;-73
2021/07/09 05:05:56;;;;;;;15.90;6.00;;;;;;;-145.18;100.00;60484.78;5059060;28;20025;-73
2021/07/09 05:08:25;;;;;;;11.90;6.27;;;;;;;-145.18;100.00;60484.78;5059405;28;20024;-73
2021/07/09 05:10:50;;;;;;;12.13;6.07;;;;;;;-145.18;100.00;60484.78;5059536;28;20021;-74
2021/07/09 05:13:16;;;;;;;14.10;5.80;;;;;;;-145.18;100.00;60484.78;5059874;28;20020;-73
2021/07/09 05:15:43;;;;;;;11.30;5.90;;;;;;;-145.18;100.00;60484.78;5059728;28;20461;-73
2021/07/09 05:18:09;;;;;;;13.10;5.83;;;;;;;-145.18;100.00;60484.78;5059141;28;20376;-73
2021/07/09 05:20:34;;;;;;;11.27;5.67;;;;;;;-145.18;100.00;60484.78;5059381;28;20111;-73
2021/07/09 05:23:00;;;;;;;11.87;6.07;;;;;;;-145.18;100.00;60484.78;5059514;28;20028;-73
2021/07/09 05:25:28;;;;;;;14.17;6.03;;;;;;;-145.18;100.00;60484.78;5059416;28;20044;-74
2021/07/09 05:27:54;;;;;;;15.83;6.23;;;;;;;-145.18;100.00;60484.78;5059290;28;20544;-73
2021/07/09 05:30:19;;;;;;;11.33;5.40;;;;;;;-145.18;100.00;60484.78;5059182;28;20245;-73
2021/07/09 05:32:46;;;;;;;12.23;5.53;;;;;;;-145.18;100.00;60484.78;5059243;28;20237;-73
2021/07/09 05:35:12;;;;;;;16.87;6.07;;;;;;;-145.18;100.00;60484.78;5059270;28;20031;-73
2021/07/09 05:37:37;;;;;;;14.37;6.50;;;;;;;-145.18;100.00;60484.78;5058995;28;20047;-73
2021/07/09 05:40:04;;;;;;;15.70;6.60;;;;;;;-145.18;100.00;60484.78;5059263;28;20032;-73
2021/07/09 05:42:30;;;;;;;15.30;6.00;;;;;;;-145.18;100.00;60484.78;5059526;28;20092;-73
2021/07/09 05:44:55;;;;;;;13.67;5.70;;;;;;;-145.18;100.00;60484.78;5058124;28;20493;-73
2021/07/09 05:47:21;;;;;;;14.40;6.40;;;;;;;-145.18;100.00;60484.78;5059103;28;20028;-73
2021/07/09 05:49:46;;;;;;;14.03;6.23;;;;;;;-145.18;100.00;60484.78;5059273;28;20558;-72
2021/07/09 05:52:12;;;;;;;14.57;5.90;;;;;;;-145.18;100.00;60484.78;5059626;28;20385;-73
2021/07/09 05:54:37;;;;;;;12.77;5.70;;;;;;;-145.18;100.00;60484.78;5059058;28;20039;-72
2021/07/09 05:57:04;;;;;;;14.87;5.73;;;;;;;-145.18;100.00;60484.78;5062700;28;20564;-73
2021/07/09 05:59:29;;;;;;;12.30;5.93;;;;;;;-145.18;100.00;60484.78;5055814;28;20108;-72
2021/07/09 06:01:55;;;;;;;14.10;5.97;;;;;;;-145.18;100.00;60484.78;5059455;28;20267;-72
2021/07/09 06:04:20;;;;;;;18.07;6.00;;;;;;;-145.18;100.00;60484.78;5059239;28;20534;-73
2021/07/09 06:06:46;;;;;;;15.27;6.53;;;;;;;-145.18;100.00;60484.78;5059218;28;20250;-72
2021/07/09 06:09:12;;;;;;;14.13;6.20;;;;;;;-145.18;100.00;60484.78;5058874;28;20377;-72
2021/07/09 06:11:38;;;;;;;18.60;6.00;;;;;;;-145.18;100.00;60484.78;5059105;28;20040;-73
2021/07/09 06:14:04;;;;;;;13.10;5.93;;;;;;;-145.18;100.00;60484.78;5059823;28;20054;-72
2021/07/09 06:16:31;;;;;;;14.57;6.37;;;;;;;-145.18;100.00;60484.78;5062989;28;20028;-72
2021/07/09 06:18:57;;;;;;;13.60;6.07;;;;;;;-145.18;100.00;60484.78;5062749;28;20024;-72
2021/07/09 06:21:23;;;;;;;14.47;6.13;;;;;;;-145.18;100.00;60484.78;5062481;28;20025;-73
2021/07/09 06:23:49;;;;;;;15.03;6.30;;;;;;;-145.18;100.00;60484.78;5062722;28;20385;-73
2021/07/09 06:26:15;;;;;;;14.80;5.97;;;;;;;-145.18;100.00;60484.78;5062550;28;20324;-73
2021/07/09 06:28:40;;;;;;;15.17;6.47;;;;;;;-145.18;100.00;60484.78;5062550;28;20044;-72
2021/07/09 06:31:06;;;;;;;12.53;6.33;;;;;;;-145.18;100.00;60484.78;5062157;28;20032;-72
2021/07/09 06:33:31;;;;;;;16.70;6.97;;;;;;;-145.18;100.00;60484.78;5062560;28;20455;-73
2021/07/09 06:35:57;;;;;;;17.97;6.10;;;;;;;-145.18;100.00;60484.78;5062170;28;20021;-72
2021/07/09 06:38:22;;;;;;;17.07;6.20;;;;;;;-145.18;100.00;60484.78;5062203;28;20031;-73
2021/07/09 06:40:48;;;;;;;17.20;6.67;;;;;;;-145.18;100.00;60484.78;5061767;28;20024;-72
2021/07/09 06:43:13;;;;;;;15.57;6.70;;;;;;;-145.18;100.00;60484.78;5062243;28;20017;-72
2021/07/09 06:45:40;;;;;;;15.93;6.63;;;;;;;-145.18;100.00;60484.78;5055599;28;20343;-73
2021/07/09 06:48:07;;;;;;;18.17;7.30;;;;;;;-145.18;100.00;60484.78;5061750;28;20123;-72
2021/07/09 06:50:34;;;;;;;15.63;6.73;;;;;;;-145.18;100.00;60484.78;5061740;28;20530;-72
2021/07/09 06:52:59;;;;;;;13.97;6.57;;;;;;;-145.18;100.00;60484.78;5061695;28;20109;-72
2021/07/09 06:55:25;;;;;;;15.37;6.53;;;;;;;-145.18;100.00;60484.78;5061918;28;20249;-72
2021/07/09 06:57:50;;;;;;;12.77;6.17;;;;;;;-145.18;100.00;60484.78;5070212;28;20034;-72
2021/07/09 07:00:17;;;;;;;14.43;5.97;;;;;;;-145.18;100.00;60484.78;5062720;28;20035;-72
2021/07/09 07:02:44;;;;;;;13.73;5.57;;;;;;;-145.18;100.00;60484.78;5061778;28;20036;-72
2021/07/09 07:05:10;;;;;;;13.07;5.57;;;;;;;-145.18;100.00;60484.78;5061990;28;20412;-72
2021/07/09 07:07:36;;;;;;;11.40;5.73;;;;;;;-145.18;100.00;60484.78;5065072;28;20043;-73
2021/07/09 07:10:04;;;;;;;14.97;5.50;;;;;;;-145.18;100.00;60484.78;5061819;28;20032;-72
2021/07/09 07:12:29;;;;;;;14.57;5.47;;;;;;;-145.18;100.00;60484.78;5061714;28;20051;-73
2021/07/09 07:14:55;;;;;;;12.07;5.07;;;;;;;-145.18;100.00;60484.78;5061923;28;20048;-73
2021/07/09 07:17:20;;;;;;;13.23;5.53;;;;;;;-145.18;100.00;60484.78;5061774;28;20085;-72
2021/07/09 07:19:46;;;;;;;12.30;5.83;;;;;;;-145.18;100.00;60484.78;5061876;28;20025;-73
2021/07/09 07:22:12;;;;;;;11.82;5.68;;;;;;;-145.18;100.00;60484.78;5061421;28;20051;-72
2021/07/09 07:24:38;;;;;;;11.57;5.50;;;;;;;-145.18;100.00;60484.78;5061427;28;20493;-72
2021/07/09 07:27:04;;;;;;;12.83;5.63;;;;;;;-145.18;100.00;60484.78;5061213;28;20503;-71
2021/07/09 07:29:29;;;;;;;14.50;5.90;;;;;;;-145.18;100.00;60484.78;5061246;28;20028;-70
2021/07/09 07:31:55;;;;;;;14.40;5.60;;;;;;;-145.18;100.00;60484.78;5060838;28;20028;-71
2021/07/09 07:34:20;;;;;;;12.73;5.83;;;;;;;-145.18;100.00;60484.78;5061100;28;20093;-70
2021/07/09 07:36:46;;;;;;;11.03;5.23;;;;;;;-145.18;100.00;60484.78;5061166;28;20055;-71
2021/07/09 07:39:12;;;;;;;11.57;5.90;;;;;;;-145.18;100.00;60484.78;5061375;28;20423;-72
2021/07/09 07:41:38;;;;;;;15.47;6.13;;;;;;;-145.18;100.00;60484.78;5060822;28;20067;-71
2021/07/09 07:44:04;;;;;;;11.90;5.17;;;;;;;-145.18;100.00;60484.78;5061130;28;20017;-71
2021/07/09 07:46:30;;;;;;;12.23;5.60;;;;;;;-145.18;100.00;60484.78;5053653;28;20102;-71
2021/07/09 07:48:56;;;;;;;13.48;5.53;;;;;;;-145.18;100.00;60484.78;5061010;28;20168;-71
2021/07/09 07:51:23;;;;;;;12.37;5.17;;;;;;;-145.18;100.00;60484.78;5060811;28;20060;-71
2021/07/09 07:53:50;;;;;;;9.97;4.70;;;;;;;-145.18;100.00;60484.78;5060735;28;20591;-71
2021/07/09 07:56:17;;;;;;;10.75;4.78;;;;;;;-145.18;100.00;60484.78;5065012;28;20407;-71
2021/07/09 07:58:42;;;;;;;9.07;4.17;;;;;;;-145.18;100.00;60484.78;5068969;28;20052;-71
2021/07/09 08:01:08;;;;;;;12.97;4.20;;;;;;;-145.18;100.00;60484.78;5060339;28;20056;-71
2021/07/09 08:03:34;;;;;;;9.63;4.57;;;;;;;-145.18;100.00;60484.78;5060025;28;20110;-71
2021/07/09 08:06:00;;;;;;;9.03;4.23;;;;;;;-145.18;100.00;60484.78;5060471;28;20028;-71
2021/07/09 08:08:25;;;;;;;8.95;4.03;;;;;;;-145.18;100.00;60484.78;5057566;28;20067;-71
2021/07/09 08:10:51;;;;;;;9.65;4.13;;;;;;;-145.18;100.00;60484.78;5060552;28;20033;-72
2021/07/09 08:13:16;;;;;;;8.60;4.07;;;;;;;-145.18;100.00;60484.78;5060242;28;20564;-71
2021/07/09 08:15:42;;;;;;;8.77;4.05;;;;;;;-145.18;100.00;60484.78;5060337;28;20103;-70
2021/07/09 08:18:07;;;;;;;8.67;4.30;;;;;;;-145.18;100.00;60484.78;5060570;28;20136;-71
2021/07/09 08:20:34;;;;;;;9.10;4.25;;;;;;;-145.18;100.00;60484.78;5060819;28;20021;-71
2021/07/09 08:23:01;;;;;;;9.32;3.83;;;;;;;-145.18;100.00;60484.78;5060200;28;20035;-71
2021/07/09 08:25:26;;;;;;;10.20;3.92;;;;;;;-145.18;100.00;60484.78;5060074;28;20035;-71
2021/07/09 08:27:52;;;;;;;8.45;4.13;;;;;;;-145.18;100.00;60484.78;5059931;28;20668;-72
2021/07/09 08:30:18;;;;;;;9.38;4.20;;;;;;;-145.18;100.00;60484.78;5060207;28;20043;-71
2021/07/09 08:32:43;;;;;;;12.75;3.92;;;;;;;-145.18;100.00;60484.78;5059865;28;20028;-70
2021/07/09 08:35:09;;;;;;;9.90;4.07;;;;;;;-145.18;100.00;60484.78;5060160;28;20036;-72
2021/07/09 08:37:35;;;;;;;9.40;3.85;;;;;;;-145.18;100.00;60484.78;5059548;28;20029;-72
2021/07/09 08:40:01;;;;;;;10.48;4.15;;;;;;;-145.18;100.00;60484.78;5060416;28;20024;-71
2021/07/09 08:42:26;;;;;;;9.25;4.40;;;;;;;-145.18;100.00;60484.78;5059732;28;20613;-71
2021/07/09 08:44:52;;;;;;;9.75;4.00;;;;;;;-145.18;100.00;60484.78;5059659;28;20441;-71
2021/07/09 08:47:19;;;;;;;9.77;4.30;;;;;;;-145.18;100.00;60484.78;5059594;28;20546;-71
2021/07/09 08:49:47;;;;;;;8.40;3.70;;;;;;;-145.18;100.00;60484.78;5060216;28;20358;-71
2021/07/09 08:52:12;;;;;;;8.40;3.93;;;;;;;-145.18;100.00;60484.78;5059688;28;20038;-71
2021/07/09 08:54:38;;;;;;;8.33;3.83;;;;;;;-145.18;100.00;60484.78;5059459;28;20025;-70
2021/07/09 08:57:04;;;;;;;8.57;4.13;;;;;;;-145.18;100.00;60484.78;5061258;28;20033;-71
2021/07/09 08:59:30;;;;;;;10.73;3.90;;;;;;;-145.18;100.00;60484.78;5066479;28;20032;-71
2021/07/09 09:02:03;;;;;;;11.27;3.93;;;;;;;-145.18;100.00;60484.78;5059502;28;20420;-71
2021/07/09 09:04:37;;;;;;;9.30;3.72;;;;;;;-145.18;100.00;60484.78;5059362;28;20069;-71
2021/07/09 09:07:11;;;;;;;12.40;3.40;;;;;;;-145.18;100.00;60484.78;5058514;28;20027;-71
2021/07/09 09:09:41;;;;;;;11.30;3.72;;;;;;;-145.18;100.00;60484.78;5059649;28;20051;-70
2021/07/09 09:12:15;;;;;;;8.45;3.55;;;;;;;-145.18;100.00;60484.78;5059043;28;20024;-71
2021/07/09 09:14:42;;;;;;;7.95;3.65;;;;;;;-145.18;100.00;60484.78;5059368;28;20365;-71
2021/07/09 09:17:35;;;;;;;6.67;3.30;;;;;;;-145.18;100.00;60484.78;5059443;28;20368;-71
2021/07/09 09:20:20;;;;;;;6.67;3.30;;;;;;;-145.18;100.00;60484.78;5059471;28;20038;-71
2021/07/09 09:23:06;;;;;;;6.63;3.00;;;;;;;-145.18;100.00;60484.78;5059221;28;20024;-71
2021/07/09 09:25:35;;;;;;;7.13;3.15;;;;;;;-145.18;100.00;60484.78;5059192;28;20035;-71
2021/07/09 09:28:11;;;;;;;7.43;3.17;;;;;;;-145.18;100.00;60484.78;5059261;28;20606;-71
2021/07/09 09:30:37;;;;;;;10.70;3.40;;;;;;;-145.18;100.00;60484.78;5059417;28;20024;-70
2021/07/09 09:33:11;;;;;;;8.75;3.10;;;;;;;-145.18;100.00;60484.78;5059058;28;20611;-71
2021/07/09 09:35:51;;;;;;;6.43;3.08;;;;;;;-145.18;100.00;60484.78;5059031;28;20270;-71
2021/07/09 09:38:22;;;;;;;9.05;3.00;;;;;;;-145.18;100.00;60484.78;5049793;28;20431;-71
2021/07/09 09:40:50;;;;;;;7.53;3.33;;;;;;;-145.18;100.00;60484.78;5059158;28;20258;-71
2021/07/09 09:43:19;;;;;;;7.97;3.40;;;;;;;-145.18;100.00;60484.78;5059480;28;20196;-71
2021/07/09 09:45:56;;;;;;;7.18;3.08;;;;;;;-145.18;100.00;60484.78;5058886;28;20047;-71
2021/07/09 09:48:22;;;;;;;6.35;3.03;;;;;;;-145.18;100.00;60484.78;5060383;28;20500;-71
2021/07/09 09:50:50;;;;;;;9.18;3.58;;;;;;;-145.18;100.00;60484.78;5063171;28;20269;-72
2021/07/09 09:53:30;;;;;;;6.93;3.05;;;;;;;-145.18;100.00;60484.78;5063387;28;20231;-71
2021/07/09 09:56:04;;;;;;;9.48;2.78;;;;;;;-145.18;100.00;60484.78;5062630;28;20118;-71
2021/07/09 09:58:29;;;;;;;8.93;3.10;;;;;;;-145.18;100.00;60484.78;5071707;28;20063;-71
2021/07/09 10:00:55;;;;;;;5.15;2.47;;;;;;;-145.18;100.00;60484.78;5063056;28;20016;-71
2021/07/09 10:03:20;;;;;;;5.90;2.45;;;;;;;-145.18;100.00;60484.78;5062687;28;20524;-71
2021/07/09 10:05:48;;;;;;;5.85;2.78;;;;;;;-145.18;100.00;60484.78;5062572;28;20366;-71
2021/07/09 10:08:21;;;;;;;9.05;3.20;;;;;;;-145.18;100.00;60484.78;5062758;28;20028;-72
2021/07/09 10:10:48;;;;;;;5.43;2.85;;;;;;;-145.18;100.00;60484.78;5062861;28;20036;-72
2021/07/09 10:13:18;;;;;;;6.18;2.80;;;;;;;-145.18;100.00;60484.78;5062711;28;20115;-72
2021/07/09 10:15:45;;;;;;;5.60;2.70;;;;;;;-145.18;100.00;60484.78;5062587;28;20017;-71
2021/07/09 10:18:13;;;;;;;4.68;2.30;;;;;;;-145.18;100.00;60484.78;5058981;28;20489;-72
2021/07/09 10:20:41;;;;;;;5.82;2.10;;;;;;;-145.18;100.00;60484.78;5062735;28;20081;-72
2021/07/09 10:23:08;;;;;;;5.97;2.63;;;;;;;-145.18;100.00;60484.78;5061957;28;20024;-72
2021/07/09 10:25:34;;;;;;;4.47;2.15;;;;;;;-145.18;100.00;60484.78;5062431;28;20303;-72
2021/07/09 10:28:04;;;;;;;8.60;2.10;;;;;;;-145.18;100.00;60484.78;5073615;28;20031;-72
2021/07/09 10:30:41;;;;;;;7.32;2.33;;;;;;;-145.18;100.00;60484.78;5062469;28;20020;-71
2021/07/09 10:33:26;;;;;;;6.35;2.00;;;;;;;-145.18;100.00;60484.78;5062548;28;20291;-73
2021/07/09 10:35:51;;;;;;;6.22;2.22;;;;;;;-145.18;100.00;60484.78;5062443;28;20123;-72
2021/07/09 10:38:19;;;;;;;5.07;2.42;;;;;;;-145.18;100.00;60484.78;5062186;28;20040;-72
2021/07/09 10:40:46;;;;;;;4.57;2.00;;;;;;;-145.18;100.00;60484.78;5062327;28;20219;-72
2021/07/09 10:43:14;;;;;;;4.88;1.90;;;;;;;-145.18;100.00;60484.78;5062184;28;20031;-72
2021/07/09 10:45:41;;;;;;;3.40;1.73;;;;;;;-145.18;100.00;60484.78;5055738;28;20416;-72
2021/07/09 10:48:13;;;;;;;5.97;1.80;;;;;;;-145.18;100.00;60484.78;5061695;28;20533;-72
2021/07/09 10:50:49;;;;;;;4.75;1.90;;;;;;;-145.18;100.00;60484.78;5062280;28;20028;-72
2021/07/09 10:53:29;;;;;;;3.50;1.65;;;;;;;-145.18;100.00;60484.78;5057282;28;20029;-72
2021/07/09 10:56:09;;;;;;;4.30;1.85;;;;;;;-145.18;100.00;60484.78;5062159;28;20258;-72
2021/07/09 10:58:42;;;;;;;4.93;2.15;;;;;;;-145.18;100.00;60484.78;5069878;28;20255;-72
2021/07/09 11:01:19;;;;;;;6.18;2.20;;;;;;;-145.18;100.00;60484.78;5061327;28;20059;-72
2021/07/09 11:04:08;;;;;;;4.53;1.90;;;;;;;-145.18;100.00;60484.78;5061779;28;20069;-72
2021/07/09 11:06:39;;;;;;;5.53;2.33;;;;;;;-145.18;100.00;60484.78;5061928;28;20020;-72